Página principal
METAR-TAF:

METAR-TAF

Aeroportos :

La Romana, República Dominicana

latitude: 18-25N, longitude: 068-57W, altura: 8 m

Observação actual do tempo

O boletim foi feito há 43 minutos, às 23:00 UTC
Vento 8 kt de norte
Temperatura 24°C
Humidade 89%
Pressão 1014 hPa
Visibilidade 10 km ou mais
Nuvens fragmentadasa uma altura de 1800 ft

METAR: MDLR 022300Z 36008KT 9999 BKN018 24/22 Q1014

Hora: 19:43 (23:43 UTC)

Previsão

O boletim foi feito há 1 hora e 43 minutos, às 22:00 UTC
Previsão válida de 03 às 00 UTC a 03 às 24 UTC
Vento 8 kt de es-nordeste
Visibilidade 10 km ou mais
Nuvens dispersasa uma altura de 2000 ft
Probabilidade 30%
de 03 às 00 UTC a 03 às 06 UTC
Visibilidade: 7000 m
Nuvens fragmentadasa uma altura de 1800 ft
aguaceiros fracos de chuva
Tornando-se
de 03 às 00 UTC a 03 às 02 UTC
Vento kt de norte

TAF: MDLR 022200Z 0300/0324 06008KT 9999 SCT020 PROB30 0300/0306 7000 -SHRA BKN018 BECMG 0300/0302 00000KT

Observações e previsões do tempo de mais de 4000 aeroportos (mensagens METAR e TAF).

As estações disponíveis são os pontos amarelos e vermelhos sobre o mapa.

Mova o rato sobre o mapa para ver o nome da estação.

Depois clique no ponto para visualizar as observações e previsões meteorológicas.

Para alterar o mapa : clique nos botões verdes com uma cruz preta para aumentar o zoom; no botão verde com uma pitada de zoom; ou nas setas verdes para mapas adjacentes.


METAR-TAF: